sensor_id;sensor_type;location;lat;lon;timestamp;P1;durP1;ratioP1;P2;durP2;ratioP2
8319;SDS011;4197;42.130;24.746;2022-08-01T00:00:09;7.75;;;7.05;;
8319;SDS011;4197;42.130;24.746;2022-08-01T00:02:38;7.68;;;7.00;;
8319;SDS011;4197;42.130;24.746;2022-08-01T00:05:07;8.18;;;7.57;;
8319;SDS011;4197;42.130;24.746;2022-08-01T00:07:38;7.40;;;6.80;;
8319;SDS011;4197;42.130;24.746;2022-08-01T00:10:07;7.28;;;6.68;;
8319;SDS011;4197;42.130;24.746;2022-08-01T00:12:37;7.68;;;7.03;;
8319;SDS011;4197;42.130;24.746;2022-08-01T00:15:07;7.22;;;6.60;;
8319;SDS011;4197;42.130;24.746;2022-08-01T00:17:37;7.63;;;6.72;;
8319;SDS011;4197;42.130;24.746;2022-08-01T00:20:07;8.05;;;6.82;;
8319;SDS011;4197;42.130;24.746;2022-08-01T00:22:40;7.45;;;6.75;;
8319;SDS011;4197;42.130;24.746;2022-08-01T00:25:09;7.40;;;6.80;;
8319;SDS011;4197;42.130;24.746;2022-08-01T00:27:37;8.57;;;7.13;;
8319;SDS011;4197;42.130;24.746;2022-08-01T00:30:06;7.82;;;7.18;;
8319;SDS011;4197;42.130;24.746;2022-08-01T00:32:40;7.55;;;6.90;;
8319;SDS011;4197;42.130;24.746;2022-08-01T00:35:10;7.35;;;6.75;;
8319;SDS011;4197;42.130;24.746;2022-08-01T00:37:41;9.63;;;6.90;;
8319;SDS011;4197;42.130;24.746;2022-08-01T00:40:11;7.95;;;7.25;;
8319;SDS011;4197;42.130;24.746;2022-08-01T00:42:39;9.50;;;7.20;;
8319;SDS011;4197;42.130;24.746;2022-08-01T00:45:09;7.60;;;6.97;;
8319;SDS011;4197;42.130;24.746;2022-08-01T00:47:38;7.70;;;7.00;;
8319;SDS011;4197;42.130;24.746;2022-08-01T00:50:06;8.85;;;6.97;;
8319;SDS011;4197;42.130;24.746;2022-08-01T00:52:36;8.70;;;7.43;;
8319;SDS011;4197;42.130;24.746;2022-08-01T00:55:06;7.45;;;6.85;;
8319;SDS011;4197;42.130;24.746;2022-08-01T00:57:40;7.72;;;6.95;;
8319;SDS011;4197;42.130;24.746;2022-08-01T01:00:29;9.07;;;7.20;;
8319;SDS011;4197;42.130;24.746;2022-08-01T01:03:18;6.68;;;6.07;;
8319;SDS011;4197;42.130;24.746;2022-08-01T01:06:05;7.68;;;6.97;;
8319;SDS011;4197;42.130;24.746;2022-08-01T01:08:41;7.00;;;6.40;;
8319;SDS011;4197;42.130;24.746;2022-08-01T01:11:16;7.30;;;6.68;;
8319;SDS011;4197;42.130;24.746;2022-08-01T01:13:52;7.60;;;6.55;;
8319;SDS011;4197;42.130;24.746;2022-08-01T01:16:26;8.00;;;6.60;;
8319;SDS011;4197;42.130;24.746;2022-08-01T01:18:59;6.95;;;6.35;;
8319;SDS011;4197;42.130;24.746;2022-08-01T01:21:38;7.75;;;6.25;;
8319;SDS011;4197;42.130;24.746;2022-08-01T01:24:25;7.38;;;6.68;;
8319;SDS011;4197;42.130;24.746;2022-08-01T01:27:06;7.47;;;6.80;;
8319;SDS011;4197;42.130;24.746;2022-08-01T01:29:46;7.20;;;6.50;;
8319;SDS011;4197;42.130;24.746;2022-08-01T01:32:28;6.65;;;6.05;;
8319;SDS011;4197;42.130;24.746;2022-08-01T01:35:02;7.10;;;6.50;;
8319;SDS011;4197;42.130;24.746;2022-08-01T01:37:34;7.20;;;6.60;;
8319;SDS011;4197;42.130;24.746;2022-08-01T01:40:07;7.45;;;6.85;;
8319;SDS011;4197;42.130;24.746;2022-08-01T01:42:37;9.95;;;6.88;;
8319;SDS011;4197;42.130;24.746;2022-08-01T01:45:08;11.05;;;6.43;;
8319;SDS011;4197;42.130;24.746;2022-08-01T01:47:36;7.40;;;6.72;;
8319;SDS011;4197;42.130;24.746;2022-08-01T01:50:06;7.03;;;6.32;;
8319;SDS011;4197;42.130;24.746;2022-08-01T01:52:37;7.72;;;7.03;;
8319;SDS011;4197;42.130;24.746;2022-08-01T01:55:07;8.73;;;7.82;;
8319;SDS011;4197;42.130;24.746;2022-08-01T01:57:39;7.50;;;6.80;;
8319;SDS011;4197;42.130;24.746;2022-08-01T02:00:13;7.97;;;6.82;;
8319;SDS011;4197;42.130;24.746;2022-08-01T02:02:44;7.28;;;6.63;;
8319;SDS011;4197;42.130;24.746;2022-08-01T02:05:14;8.30;;;7.60;;
8319;SDS011;4197;42.130;24.746;2022-08-01T02:07:43;8.10;;;6.68;;
8319;SDS011;4197;42.130;24.746;2022-08-01T02:10:14;7.63;;;6.85;;
8319;SDS011;4197;42.130;24.746;2022-08-01T02:12:53;6.97;;;6.38;;
8319;SDS011;4197;42.130;24.746;2022-08-01T02:15:25;8.13;;;6.72;;
8319;SDS011;4197;42.130;24.746;2022-08-01T02:17:55;12.85;;;6.68;;
8319;SDS011;4197;42.130;24.746;2022-08-01T02:20:25;7.22;;;6.60;;
8319;SDS011;4197;42.130;24.746;2022-08-01T02:22:57;7.38;;;6.70;;
8319;SDS011;4197;42.130;24.746;2022-08-01T02:25:34;7.82;;;6.70;;
8319;SDS011;4197;42.130;24.746;2022-08-01T02:28:29;8.02;;;5.95;;
8319;SDS011;4197;42.130;24.746;2022-08-01T02:31:02;7.35;;;6.45;;
8319;SDS011;4197;42.130;24.746;2022-08-01T02:33:37;6.25;;;5.63;;
8319;SDS011;4197;42.130;24.746;2022-08-01T02:36:08;6.63;;;5.88;;
8319;SDS011;4197;42.130;24.746;2022-08-01T02:38:59;6.43;;;5.82;;
8319;SDS011;4197;42.130;24.746;2022-08-01T02:41:30;6.72;;;6.13;;
8319;SDS011;4197;42.130;24.746;2022-08-01T02:44:04;7.38;;;6.00;;
8319;SDS011;4197;42.130;24.746;2022-08-01T02:46:37;6.57;;;5.72;;
8319;SDS011;4197;42.130;24.746;2022-08-01T02:49:20;7.38;;;6.20;;
8319;SDS011;4197;42.130;24.746;2022-08-01T02:51:52;6.55;;;6.03;;
8319;SDS011;4197;42.130;24.746;2022-08-01T02:54:22;6.50;;;5.90;;
8319;SDS011;4197;42.130;24.746;2022-08-01T02:56:51;8.15;;;6.40;;
8319;SDS011;4197;42.130;24.746;2022-08-01T02:59:23;11.02;;;6.53;;
8319;SDS011;4197;42.130;24.746;2022-08-01T03:01:56;6.63;;;5.97;;
8319;SDS011;4197;42.130;24.746;2022-08-01T03:04:28;7.07;;;6.10;;
8319;SDS011;4197;42.130;24.746;2022-08-01T03:06:57;7.50;;;5.95;;
8319;SDS011;4197;42.130;24.746;2022-08-01T03:09:26;6.93;;;6.10;;
8319;SDS011;4197;42.130;24.746;2022-08-01T03:11:57;6.57;;;5.50;;
8319;SDS011;4197;42.130;24.746;2022-08-01T03:14:29;5.82;;;5.20;;
8319;SDS011;4197;42.130;24.746;2022-08-01T03:17:03;8.18;;;5.78;;
8319;SDS011;4197;42.130;24.746;2022-08-01T03:19:33;6.53;;;5.82;;
8319;SDS011;4197;42.130;24.746;2022-08-01T03:22:04;8.18;;;5.65;;
8319;SDS011;4197;42.130;24.746;2022-08-01T03:24:35;8.60;;;4.68;;
8319;SDS011;4197;42.130;24.746;2022-08-01T03:27:06;6.18;;;4.57;;
8319;SDS011;4197;42.130;24.746;2022-08-01T03:29:38;4.93;;;4.05;;
8319;SDS011;4197;42.130;24.746;2022-08-01T03:32:10;5.65;;;4.70;;
8319;SDS011;4197;42.130;24.746;2022-08-01T03:34:40;6.80;;;4.88;;
8319;SDS011;4197;42.130;24.746;2022-08-01T03:37:10;7.75;;;4.70;;
8319;SDS011;4197;42.130;24.746;2022-08-01T03:39:44;5.28;;;4.25;;
8319;SDS011;4197;42.130;24.746;2022-08-01T03:42:15;5.90;;;5.30;;
8319;SDS011;4197;42.130;24.746;2022-08-01T03:44:50;5.68;;;4.45;;
8319;SDS011;4197;42.130;24.746;2022-08-01T03:47:24;7.75;;;4.32;;
8319;SDS011;4197;42.130;24.746;2022-08-01T03:50:09;6.90;;;4.20;;
8319;SDS011;4197;42.130;24.746;2022-08-01T03:52:40;5.40;;;4.45;;
8319;SDS011;4197;42.130;24.746;2022-08-01T03:55:14;4.80;;;4.40;;
8319;SDS011;4197;42.130;24.746;2022-08-01T03:57:44;7.80;;;4.72;;
8319;SDS011;4197;42.130;24.746;2022-08-01T04:00:13;5.25;;;4.65;;
8319;SDS011;4197;42.130;24.746;2022-08-01T04:02:46;6.07;;;4.45;;
8319;SDS011;4197;42.130;24.746;2022-08-01T04:05:15;6.82;;;4.97;;
8319;SDS011;4197;42.130;24.746;2022-08-01T04:07:45;6.65;;;4.32;;
8319;SDS011;4197;42.130;24.746;2022-08-01T04:10:14;4.88;;;4.18;;
8319;SDS011;4197;42.130;24.746;2022-08-01T04:12:43;8.30;;;4.28;;
8319;SDS011;4197;42.130;24.746;2022-08-01T04:15:11;5.07;;;4.03;;
8319;SDS011;4197;42.130;24.746;2022-08-01T04:17:40;5.28;;;4.13;;
8319;SDS011;4197;42.130;24.746;2022-08-01T04:20:10;4.30;;;3.85;;
8319;SDS011;4197;42.130;24.746;2022-08-01T04:22:39;6.38;;;4.40;;
8319;SDS011;4197;42.130;24.746;2022-08-01T04:25:09;5.97;;;3.95;;
8319;SDS011;4197;42.130;24.746;2022-08-01T04:27:42;5.10;;;4.38;;
8319;SDS011;4197;42.130;24.746;2022-08-01T04:30:19;5.32;;;4.00;;
8319;SDS011;4197;42.130;24.746;2022-08-01T04:32:51;4.70;;;4.22;;
8319;SDS011;4197;42.130;24.746;2022-08-01T04:35:23;7.63;;;3.95;;
8319;SDS011;4197;42.130;24.746;2022-08-01T04:38:15;4.60;;;3.90;;
8319;SDS011;4197;42.130;24.746;2022-08-01T04:40:50;6.25;;;3.83;;
8319;SDS011;4197;42.130;24.746;2022-08-01T04:43:19;8.30;;;3.95;;
8319;SDS011;4197;42.130;24.746;2022-08-01T04:45:48;5.72;;;4.22;;
8319;SDS011;4197;42.130;24.746;2022-08-01T04:48:19;5.85;;;3.70;;
8319;SDS011;4197;42.130;24.746;2022-08-01T04:50:51;4.32;;;3.63;;
8319;SDS011;4197;42.130;24.746;2022-08-01T04:53:19;5.32;;;3.72;;
8319;SDS011;4197;42.130;24.746;2022-08-01T04:55:49;5.95;;;4.72;;
8319;SDS011;4197;42.130;24.746;2022-08-01T04:58:17;6.95;;;4.15;;
8319;SDS011;4197;42.130;24.746;2022-08-01T05:00:46;6.75;;;3.60;;
8319;SDS011;4197;42.130;24.746;2022-08-01T05:03:15;6.93;;;3.80;;
8319;SDS011;4197;42.130;24.746;2022-08-01T05:05:43;5.00;;;3.13;;
8319;SDS011;4197;42.130;24.746;2022-08-01T05:08:13;4.57;;;3.33;;
8319;SDS011;4197;42.130;24.746;2022-08-01T05:10:42;5.55;;;3.50;;
8319;SDS011;4197;42.130;24.746;2022-08-01T05:13:11;5.43;;;3.60;;
8319;SDS011;4197;42.130;24.746;2022-08-01T05:15:39;6.00;;;3.30;;
8319;SDS011;4197;42.130;24.746;2022-08-01T05:18:07;3.42;;;3.08;;
8319;SDS011;4197;42.130;24.746;2022-08-01T05:20:36;6.45;;;3.40;;
8319;SDS011;4197;42.130;24.746;2022-08-01T05:23:05;5.88;;;3.75;;
8319;SDS011;4197;42.130;24.746;2022-08-01T05:25:41;8.27;;;4.03;;
8319;SDS011;4197;42.130;24.746;2022-08-01T05:28:23;4.85;;;3.75;;
8319;SDS011;4197;42.130;24.746;2022-08-01T05:30:52;5.20;;;4.05;;
8319;SDS011;4197;42.130;24.746;2022-08-01T05:33:21;7.60;;;4.30;;
8319;SDS011;4197;42.130;24.746;2022-08-01T05:35:49;7.70;;;3.80;;
8319;SDS011;4197;42.130;24.746;2022-08-01T05:38:18;11.68;;;4.10;;
8319;SDS011;4197;42.130;24.746;2022-08-01T05:40:47;7.53;;;4.22;;
8319;SDS011;4197;42.130;24.746;2022-08-01T05:43:15;4.78;;;3.90;;
8319;SDS011;4197;42.130;24.746;2022-08-01T05:45:43;7.47;;;3.95;;
8319;SDS011;4197;42.130;24.746;2022-08-01T05:48:12;5.95;;;4.68;;
8319;SDS011;4197;42.130;24.746;2022-08-01T05:50:40;3.97;;;2.92;;
8319;SDS011;4197;42.130;24.746;2022-08-01T05:53:09;4.03;;;3.00;;
8319;SDS011;4197;42.130;24.746;2022-08-01T05:55:37;5.40;;;2.95;;
8319;SDS011;4197;42.130;24.746;2022-08-01T05:58:07;3.50;;;2.88;;
8319;SDS011;4197;42.130;24.746;2022-08-01T06:00:38;4.15;;;2.80;;
8319;SDS011;4197;42.130;24.746;2022-08-01T06:03:06;5.88;;;2.67;;
8319;SDS011;4197;42.130;24.746;2022-08-01T06:05:34;8.23;;;2.75;;
8319;SDS011;4197;42.130;24.746;2022-08-01T06:08:03;5.82;;;2.60;;
8319;SDS011;4197;42.130;24.746;2022-08-01T06:10:31;6.05;;;2.70;;
8319;SDS011;4197;42.130;24.746;2022-08-01T06:12:59;2.65;;;2.00;;
8319;SDS011;4197;42.130;24.746;2022-08-01T06:15:31;4.10;;;2.58;;
8319;SDS011;4197;42.130;24.746;2022-08-01T06:17:59;10.35;;;2.70;;
8319;SDS011;4197;42.130;24.746;2022-08-01T06:20:28;8.05;;;2.08;;
8319;SDS011;4197;42.130;24.746;2022-08-01T06:22:56;2.70;;;1.80;;
8319;SDS011;4197;42.130;24.746;2022-08-01T06:25:27;3.15;;;2.10;;
8319;SDS011;4197;42.130;24.746;2022-08-01T06:27:56;2.95;;;2.17;;
8319;SDS011;4197;42.130;24.746;2022-08-01T06:30:24;5.85;;;2.47;;
8319;SDS011;4197;42.130;24.746;2022-08-01T06:32:54;4.28;;;2.22;;
8319;SDS011;4197;42.130;24.746;2022-08-01T06:35:24;9.63;;;2.40;;
8319;SDS011;4197;42.130;24.746;2022-08-01T06:37:53;10.40;;;2.30;;
8319;SDS011;4197;42.130;24.746;2022-08-01T06:40:21;2.67;;;1.77;;
8319;SDS011;4197;42.130;24.746;2022-08-01T06:42:50;7.50;;;2.38;;
8319;SDS011;4197;42.130;24.746;2022-08-01T06:45:18;3.67;;;2.55;;
8319;SDS011;4197;42.130;24.746;2022-08-01T06:47:49;2.97;;;1.92;;
8319;SDS011;4197;42.130;24.746;2022-08-01T06:50:18;3.88;;;2.03;;
8319;SDS011;4197;42.130;24.746;2022-08-01T06:52:48;8.43;;;2.55;;
8319;SDS011;4197;42.130;24.746;2022-08-01T06:55:16;7.18;;;2.38;;
8319;SDS011;4197;42.130;24.746;2022-08-01T06:57:46;3.45;;;1.90;;
8319;SDS011;4197;42.130;24.746;2022-08-01T07:00:15;4.13;;;2.00;;
8319;SDS011;4197;42.130;24.746;2022-08-01T07:02:45;2.97;;;1.83;;
8319;SDS011;4197;42.130;24.746;2022-08-01T07:05:13;5.88;;;2.00;;
8319;SDS011;4197;42.130;24.746;2022-08-01T07:07:43;3.92;;;2.03;;
8319;SDS011;4197;42.130;24.746;2022-08-01T07:10:11;6.38;;;2.40;;
8319;SDS011;4197;42.130;24.746;2022-08-01T07:12:39;4.28;;;2.20;;
8319;SDS011;4197;42.130;24.746;2022-08-01T07:15:08;6.45;;;2.67;;
8319;SDS011;4197;42.130;24.746;2022-08-01T07:17:38;5.10;;;2.35;;
8319;SDS011;4197;42.130;24.746;2022-08-01T07:20:09;5.45;;;2.38;;
8319;SDS011;4197;42.130;24.746;2022-08-01T07:22:43;2.28;;;1.80;;
8319;SDS011;4197;42.130;24.746;2022-08-01T07:25:13;3.40;;;2.05;;
8319;SDS011;4197;42.130;24.746;2022-08-01T07:27:42;8.23;;;2.47;;
8319;SDS011;4197;42.130;24.746;2022-08-01T07:30:11;2.60;;;1.98;;
8319;SDS011;4197;42.130;24.746;2022-08-01T07:32:40;2.78;;;1.95;;
8319;SDS011;4197;42.130;24.746;2022-08-01T07:35:09;5.72;;;1.80;;
8319;SDS011;4197;42.130;24.746;2022-08-01T07:37:37;3.75;;;2.10;;
8319;SDS011;4197;42.130;24.746;2022-08-01T07:40:15;3.80;;;1.92;;
8319;SDS011;4197;42.130;24.746;2022-08-01T07:42:45;4.53;;;2.20;;
8319;SDS011;4197;42.130;24.746;2022-08-01T07:45:14;5.03;;;2.00;;
8319;SDS011;4197;42.130;24.746;2022-08-01T07:47:43;13.20;;;2.35;;
8319;SDS011;4197;42.130;24.746;2022-08-01T07:50:12;5.35;;;2.22;;
8319;SDS011;4197;42.130;24.746;2022-08-01T07:52:40;3.47;;;1.90;;
8319;SDS011;4197;42.130;24.746;2022-08-01T07:55:08;5.80;;;1.83;;
8319;SDS011;4197;42.130;24.746;2022-08-01T07:57:43;6.20;;;2.00;;
8319;SDS011;4197;42.130;24.746;2022-08-01T08:00:12;5.15;;;1.80;;
8319;SDS011;4197;42.130;24.746;2022-08-01T08:02:41;6.90;;;2.10;;
8319;SDS011;4197;42.130;24.746;2022-08-01T08:05:10;3.08;;;1.58;;
8319;SDS011;4197;42.130;24.746;2022-08-01T08:07:39;6.32;;;2.00;;
8319;SDS011;4197;42.130;24.746;2022-08-01T08:10:07;2.90;;;1.80;;
8319;SDS011;4197;42.130;24.746;2022-08-01T08:12:36;9.10;;;2.10;;
8319;SDS011;4197;42.130;24.746;2022-08-01T08:15:07;8.77;;;2.45;;
8319;SDS011;4197;42.130;24.746;2022-08-01T08:17:36;7.55;;;1.83;;
8319;SDS011;4197;42.130;24.746;2022-08-01T08:20:05;3.17;;;1.70;;
8319;SDS011;4197;42.130;24.746;2022-08-01T08:22:52;3.60;;;1.70;;
8319;SDS011;4197;42.130;24.746;2022-08-01T08:25:20;10.82;;;1.83;;
8319;SDS011;4197;42.130;24.746;2022-08-01T08:27:52;4.22;;;1.77;;
8319;SDS011;4197;42.130;24.746;2022-08-01T08:30:21;4.65;;;2.03;;
8319;SDS011;4197;42.130;24.746;2022-08-01T08:32:50;6.50;;;1.75;;
8319;SDS011;4197;42.130;24.746;2022-08-01T08:35:18;4.60;;;1.60;;
8319;SDS011;4197;42.130;24.746;2022-08-01T08:37:48;4.00;;;1.88;;
8319;SDS011;4197;42.130;24.746;2022-08-01T08:40:21;5.72;;;1.48;;
8319;SDS011;4197;42.130;24.746;2022-08-01T08:42:57;3.30;;;1.80;;
8319;SDS011;4197;42.130;24.746;2022-08-01T08:45:29;12.52;;;2.47;;
8319;SDS011;4197;42.130;24.746;2022-08-01T08:48:18;6.05;;;2.15;;
8319;SDS011;4197;42.130;24.746;2022-08-01T08:50:53;2.72;;;1.60;;
8319;SDS011;4197;42.130;24.746;2022-08-01T08:53:22;3.45;;;1.60;;
8319;SDS011;4197;42.130;24.746;2022-08-01T08:56:00;4.47;;;2.05;;
8319;SDS011;4197;42.130;24.746;2022-08-01T08:58:30;2.78;;;1.83;;
8319;SDS011;4197;42.130;24.746;2022-08-01T09:01:06;9.80;;;2.40;;
8319;SDS011;4197;42.130;24.746;2022-08-01T09:03:35;2.70;;;1.52;;
8319;SDS011;4197;42.130;24.746;2022-08-01T09:06:04;3.33;;;1.48;;
8319;SDS011;4197;42.130;24.746;2022-08-01T09:08:32;2.15;;;1.42;;
8319;SDS011;4197;42.130;24.746;2022-08-01T09:11:00;3.65;;;1.30;;
8319;SDS011;4197;42.130;24.746;2022-08-01T09:13:29;3.88;;;1.85;;
8319;SDS011;4197;42.130;24.746;2022-08-01T09:15:57;2.63;;;1.38;;
8319;SDS011;4197;42.130;24.746;2022-08-01T09:18:31;3.85;;;1.50;;
8319;SDS011;4197;42.130;24.746;2022-08-01T09:21:07;3.92;;;1.58;;
8319;SDS011;4197;42.130;24.746;2022-08-01T09:23:37;3.45;;;1.85;;
8319;SDS011;4197;42.130;24.746;2022-08-01T09:26:20;3.83;;;1.95;;
8319;SDS011;4197;42.130;24.746;2022-08-01T09:28:59;11.88;;;2.17;;
8319;SDS011;4197;42.130;24.746;2022-08-01T09:31:38;3.45;;;1.60;;
8319;SDS011;4197;42.130;24.746;2022-08-01T09:34:14;3.60;;;1.50;;
8319;SDS011;4197;42.130;24.746;2022-08-01T09:36:46;5.57;;;1.92;;
8319;SDS011;4197;42.130;24.746;2022-08-01T09:39:20;2.85;;;1.85;;
8319;SDS011;4197;42.130;24.746;2022-08-01T09:41:50;1.83;;;1.40;;
8319;SDS011;4197;42.130;24.746;2022-08-01T09:44:36;2.53;;;1.70;;
8319;SDS011;4197;42.130;24.746;2022-08-01T09:47:10;4.53;;;1.30;;
8319;SDS011;4197;42.130;24.746;2022-08-01T09:49:42;5.03;;;1.70;;
8319;SDS011;4197;42.130;24.746;2022-08-01T09:52:18;2.17;;;1.48;;
8319;SDS011;4197;42.130;24.746;2022-08-01T09:54:52;2.75;;;1.50;;
8319;SDS011;4197;42.130;24.746;2022-08-01T09:57:22;4.75;;;1.80;;
8319;SDS011;4197;42.130;24.746;2022-08-01T09:59:52;3.90;;;1.50;;
8319;SDS011;4197;42.130;24.746;2022-08-01T10:02:29;5.03;;;1.95;;
8319;SDS011;4197;42.130;24.746;2022-08-01T10:05:02;4.18;;;1.95;;
8319;SDS011;4197;42.130;24.746;2022-08-01T10:07:34;4.65;;;1.90;;
8319;SDS011;4197;42.130;24.746;2022-08-01T10:10:10;2.33;;;1.55;;
8319;SDS011;4197;42.130;24.746;2022-08-01T10:12:40;5.70;;;1.50;;
8319;SDS011;4197;42.130;24.746;2022-08-01T10:15:11;3.70;;;1.83;;
8319;SDS011;4197;42.130;24.746;2022-08-01T10:17:45;2.42;;;1.55;;
8319;SDS011;4197;42.130;24.746;2022-08-01T10:20:25;4.95;;;1.52;;
8319;SDS011;4197;42.130;24.746;2022-08-01T10:22:58;4.50;;;1.42;;
8319;SDS011;4197;42.130;24.746;2022-08-01T10:25:34;2.88;;;1.20;;
8319;SDS011;4197;42.130;24.746;2022-08-01T10:28:10;6.03;;;1.60;;
8319;SDS011;4197;42.130;24.746;2022-08-01T10:30:43;2.35;;;1.50;;
8319;SDS011;4197;42.130;24.746;2022-08-01T10:33:14;3.10;;;1.48;;
8319;SDS011;4197;42.130;24.746;2022-08-01T10:36:06;7.22;;;1.90;;
8319;SDS011;4197;42.130;24.746;2022-08-01T10:38:35;3.47;;;1.50;;
8319;SDS011;4197;42.130;24.746;2022-08-01T10:41:04;2.63;;;1.63;;
8319;SDS011;4197;42.130;24.746;2022-08-01T10:43:34;2.00;;;1.10;;
8319;SDS011;4197;42.130;24.746;2022-08-01T10:46:02;1.90;;;1.38;;
8319;SDS011;4197;42.130;24.746;2022-08-01T10:48:34;2.28;;;1.48;;
8319;SDS011;4197;42.130;24.746;2022-08-01T10:51:12;3.55;;;1.67;;
8319;SDS011;4197;42.130;24.746;2022-08-01T10:53:48;4.43;;;1.40;;
8319;SDS011;4197;42.130;24.746;2022-08-01T10:56:20;4.68;;;1.42;;
8319;SDS011;4197;42.130;24.746;2022-08-01T10:59:00;2.40;;;1.52;;
8319;SDS011;4197;42.130;24.746;2022-08-01T11:01:36;2.00;;;1.45;;
8319;SDS011;4197;42.130;24.746;2022-08-01T11:04:12;4.47;;;1.40;;
8319;SDS011;4197;42.130;24.746;2022-08-01T11:06:52;3.35;;;1.80;;
8319;SDS011;4197;42.130;24.746;2022-08-01T11:09:31;2.97;;;1.58;;
8319;SDS011;4197;42.130;24.746;2022-08-01T11:12:16;2.13;;;1.40;;
8319;SDS011;4197;42.130;24.746;2022-08-01T11:17:58;3.85;;;1.60;;
8319;SDS011;4197;42.130;24.746;2022-08-01T11:20:30;5.55;;;1.75;;
8319;SDS011;4197;42.130;24.746;2022-08-01T11:23:18;2.17;;;1.42;;
8319;SDS011;4197;42.130;24.746;2022-08-01T11:28:44;2.97;;;1.30;;
8319;SDS011;4197;42.130;24.746;2022-08-01T11:31:34;5.30;;;1.75;;
8319;SDS011;4197;42.130;24.746;2022-08-01T11:34:03;3.33;;;1.80;;
8319;SDS011;4197;42.130;24.746;2022-08-01T11:36:32;2.85;;;1.20;;
8319;SDS011;4197;42.130;24.746;2022-08-01T11:39:21;3.90;;;1.55;;
8319;SDS011;4197;42.130;24.746;2022-08-01T11:41:51;1.77;;;1.48;;
8319;SDS011;4197;42.130;24.746;2022-08-01T11:44:22;2.42;;;1.70;;
8319;SDS011;4197;42.130;24.746;2022-08-01T11:46:59;12.95;;;2.15;;
8319;SDS011;4197;42.130;24.746;2022-08-01T11:49:45;1.67;;;1.45;;
8319;SDS011;4197;42.130;24.746;2022-08-01T11:52:18;2.50;;;1.50;;
8319;SDS011;4197;42.130;24.746;2022-08-01T11:54:52;3.25;;;1.40;;
8319;SDS011;4197;42.130;24.746;2022-08-01T11:57:23;3.25;;;1.70;;
8319;SDS011;4197;42.130;24.746;2022-08-01T12:00:01;2.30;;;1.45;;
8319;SDS011;4197;42.130;24.746;2022-08-01T12:02:42;7.72;;;1.83;;
8319;SDS011;4197;42.130;24.746;2022-08-01T12:05:13;2.70;;;1.48;;
8319;SDS011;4197;42.130;24.746;2022-08-01T12:07:44;3.15;;;1.50;;
8319;SDS011;4197;42.130;24.746;2022-08-01T12:10:18;2.45;;;1.60;;
8319;SDS011;4197;42.130;24.746;2022-08-01T12:12:49;1.50;;;1.40;;
8319;SDS011;4197;42.130;24.746;2022-08-01T12:15:19;2.08;;;1.63;;
8319;SDS011;4197;42.130;24.746;2022-08-01T12:17:49;2.10;;;1.15;;
8319;SDS011;4197;42.130;24.746;2022-08-01T12:20:25;1.52;;;1.42;;
8319;SDS011;4197;42.130;24.746;2022-08-01T12:22:57;2.90;;;1.55;;
8319;SDS011;4197;42.130;24.746;2022-08-01T12:25:28;2.72;;;1.50;;
8319;SDS011;4197;42.130;24.746;2022-08-01T12:27:59;4.35;;;1.70;;
8319;SDS011;4197;42.130;24.746;2022-08-01T12:30:29;4.13;;;1.50;;
8319;SDS011;4197;42.130;24.746;2022-08-01T12:33:02;1.75;;;1.42;;
8319;SDS011;4197;42.130;24.746;2022-08-01T12:35:31;1.85;;;1.40;;
8319;SDS011;4197;42.130;24.746;2022-08-01T12:38:01;4.32;;;1.58;;
8319;SDS011;4197;42.130;24.746;2022-08-01T12:40:34;4.50;;;1.77;;
8319;SDS011;4197;42.130;24.746;2022-08-01T12:43:14;1.55;;;1.40;;
8319;SDS011;4197;42.130;24.746;2022-08-01T12:45:55;6.80;;;2.05;;
8319;SDS011;4197;42.130;24.746;2022-08-01T12:48:24;4.50;;;1.73;;
8319;SDS011;4197;42.130;24.746;2022-08-01T12:50:54;1.73;;;1.60;;
8319;SDS011;4197;42.130;24.746;2022-08-01T12:53:26;2.10;;;1.55;;
8319;SDS011;4197;42.130;24.746;2022-08-01T12:56:08;4.95;;;1.88;;
8319;SDS011;4197;42.130;24.746;2022-08-01T12:58:38;3.22;;;1.70;;
8319;SDS011;4197;42.130;24.746;2022-08-01T13:01:07;1.95;;;1.50;;
8319;SDS011;4197;42.130;24.746;2022-08-01T13:03:37;2.17;;;1.70;;
8319;SDS011;4197;42.130;24.746;2022-08-01T13:06:10;4.28;;;1.60;;
8319;SDS011;4197;42.130;24.746;2022-08-01T13:08:42;2.40;;;1.55;;
8319;SDS011;4197;42.130;24.746;2022-08-01T13:11:13;2.20;;;1.58;;
8319;SDS011;4197;42.130;24.746;2022-08-01T13:13:44;4.97;;;1.70;;
8319;SDS011;4197;42.130;24.746;2022-08-01T13:16:15;5.35;;;1.50;;
8319;SDS011;4197;42.130;24.746;2022-08-01T13:19:03;3.22;;;1.67;;
8319;SDS011;4197;42.130;24.746;2022-08-01T13:21:33;1.58;;;1.35;;
8319;SDS011;4197;42.130;24.746;2022-08-01T13:24:23;1.70;;;1.52;;
8319;SDS011;4197;42.130;24.746;2022-08-01T13:26:55;3.08;;;2.55;;
8319;SDS011;4197;42.130;24.746;2022-08-01T13:29:29;2.47;;;1.92;;
8319;SDS011;4197;42.130;24.746;2022-08-01T13:31:59;2.55;;;1.75;;
8319;SDS011;4197;42.130;24.746;2022-08-01T13:34:30;3.08;;;1.52;;
8319;SDS011;4197;42.130;24.746;2022-08-01T13:36:59;2.28;;;1.50;;
8319;SDS011;4197;42.130;24.746;2022-08-01T13:39:29;1.90;;;1.70;;
8319;SDS011;4197;42.130;24.746;2022-08-01T13:42:13;2.17;;;1.70;;
8319;SDS011;4197;42.130;24.746;2022-08-01T13:44:44;3.60;;;1.65;;
8319;SDS011;4197;42.130;24.746;2022-08-01T13:47:14;2.03;;;1.77;;
8319;SDS011;4197;42.130;24.746;2022-08-01T13:49:42;5.38;;;1.70;;
8319;SDS011;4197;42.130;24.746;2022-08-01T13:52:11;3.53;;;1.98;;
8319;SDS011;4197;42.130;24.746;2022-08-01T13:54:39;1.92;;;1.45;;
8319;SDS011;4197;42.130;24.746;2022-08-01T13:57:07;3.13;;;1.67;;
8319;SDS011;4197;42.130;24.746;2022-08-01T13:59:37;4.30;;;1.55;;
8319;SDS011;4197;42.130;24.746;2022-08-01T14:02:05;3.30;;;2.10;;
8319;SDS011;4197;42.130;24.746;2022-08-01T14:04:34;2.33;;;1.50;;
8319;SDS011;4197;42.130;24.746;2022-08-01T14:07:02;3.08;;;1.75;;
8319;SDS011;4197;42.130;24.746;2022-08-01T14:09:37;5.00;;;1.80;;
8319;SDS011;4197;42.130;24.746;2022-08-01T14:12:25;4.07;;;1.75;;
8319;SDS011;4197;42.130;24.746;2022-08-01T14:14:54;3.20;;;1.70;;
8319;SDS011;4197;42.130;24.746;2022-08-01T14:17:24;3.20;;;1.83;;
8319;SDS011;4197;42.130;24.746;2022-08-01T14:19:53;3.97;;;1.75;;
8319;SDS011;4197;42.130;24.746;2022-08-01T14:22:22;2.28;;;1.90;;
8319;SDS011;4197;42.130;24.746;2022-08-01T14:24:51;3.67;;;1.90;;
8319;SDS011;4197;42.130;24.746;2022-08-01T14:27:26;2.47;;;1.50;;
8319;SDS011;4197;42.130;24.746;2022-08-01T14:29:58;2.00;;;1.77;;
8319;SDS011;4197;42.130;24.746;2022-08-01T14:32:29;2.08;;;1.83;;
8319;SDS011;4197;42.130;24.746;2022-08-01T14:34:59;3.78;;;1.80;;
8319;SDS011;4197;42.130;24.746;2022-08-01T14:37:29;5.97;;;2.05;;
8319;SDS011;4197;42.130;24.746;2022-08-01T14:40:04;5.22;;;2.00;;
8319;SDS011;4197;42.130;24.746;2022-08-01T14:42:36;4.55;;;2.00;;
8319;SDS011;4197;42.130;24.746;2022-08-01T14:45:07;2.58;;;2.08;;
8319;SDS011;4197;42.130;24.746;2022-08-01T14:47:36;3.15;;;1.77;;
8319;SDS011;4197;42.130;24.746;2022-08-01T14:50:06;2.17;;;1.80;;
8319;SDS011;4197;42.130;24.746;2022-08-01T14:52:36;3.13;;;1.83;;
8319;SDS011;4197;42.130;24.746;2022-08-01T14:55:08;4.45;;;1.80;;
8319;SDS011;4197;42.130;24.746;2022-08-01T14:57:38;3.42;;;2.15;;
8319;SDS011;4197;42.130;24.746;2022-08-01T15:00:09;2.97;;;1.75;;
8319;SDS011;4197;42.130;24.746;2022-08-01T15:02:39;2.20;;;1.77;;
8319;SDS011;4197;42.130;24.746;2022-08-01T15:05:08;3.50;;;1.85;;
8319;SDS011;4197;42.130;24.746;2022-08-01T15:07:37;2.33;;;1.77;;
8319;SDS011;4197;42.130;24.746;2022-08-01T15:10:17;2.15;;;1.52;;
8319;SDS011;4197;42.130;24.746;2022-08-01T15:12:46;1.70;;;1.60;;
8319;SDS011;4197;42.130;24.746;2022-08-01T15:15:17;3.53;;;1.63;;
8319;SDS011;4197;42.130;24.746;2022-08-01T15:17:46;1.85;;;1.60;;
8319;SDS011;4197;42.130;24.746;2022-08-01T15:20:15;4.28;;;2.10;;
8319;SDS011;4197;42.130;24.746;2022-08-01T15:22:43;2.22;;;2.00;;
8319;SDS011;4197;42.130;24.746;2022-08-01T15:25:12;2.50;;;1.85;;
8319;SDS011;4197;42.130;24.746;2022-08-01T15:27:40;4.80;;;1.98;;
8319;SDS011;4197;42.130;24.746;2022-08-01T15:30:10;2.30;;;1.90;;
8319;SDS011;4197;42.130;24.746;2022-08-01T15:32:40;3.92;;;1.90;;
8319;SDS011;4197;42.130;24.746;2022-08-01T15:35:09;2.95;;;2.00;;